createdAt,value
2022-11-05T00:01:40.047Z,10.65
2022-11-05T00:07:00.917Z,10.47
2022-11-05T00:12:25.226Z,10.60
2022-11-05T00:17:27.852Z,10.32
2022-11-05T00:22:48.034Z,10.22
2022-11-05T00:27:54.188Z,10.55
2022-11-05T00:33:02.034Z,10.33
2022-11-05T00:38:04.721Z,10.48
2022-11-05T00:43:26.513Z,10.60
2022-11-05T00:48:58.136Z,10.12
2022-11-05T00:54:00.872Z,10.39
2022-11-05T00:59:05.229Z,10.48
2022-11-05T01:04:07.913Z,10.35
2022-11-05T01:09:10.591Z,10.13
2022-11-05T01:14:17.069Z,9.88
2022-11-05T01:19:19.796Z,10.03
2022-11-05T01:24:22.614Z,10.01
2022-11-05T01:29:26.662Z,10.25
2022-11-05T01:34:29.498Z,10.12
2022-11-05T01:39:32.188Z,10.19
2022-11-05T01:44:55.211Z,10.13
2022-11-05T01:50:01.287Z,10.12
2022-11-05T01:55:06.707Z,10.31
2022-11-05T02:00:12.416Z,10.03
2022-11-05T02:05:16.658Z,9.86
2022-11-05T02:10:20.015Z,10.38
2022-11-05T02:15:31.375Z,10.72
2022-11-05T02:20:40.739Z,10.33
2022-11-05T02:26:11.880Z,10.48
2022-11-05T02:31:27.692Z,10.61
2022-11-05T02:36:40.027Z,10.33
2022-11-05T02:41:50.281Z,9.98
2022-11-05T02:46:59.527Z,10.09
2022-11-05T02:52:06.169Z,10.03
2022-11-05T02:57:08.877Z,9.65
2022-11-05T03:02:13.203Z,9.80
2022-11-05T03:07:36.426Z,10.26
2022-11-05T03:12:46.078Z,10.08
2022-11-05T03:18:02.092Z,10.19
2022-11-05T03:23:12.131Z,10.37
2022-11-05T03:28:16.101Z,10.08
2022-11-05T03:33:23.270Z,10.37
2022-11-05T03:38:33.966Z,10.30
2022-11-05T03:43:41.713Z,9.63
2022-11-05T03:48:50.059Z,9.08
2022-11-05T03:53:58.706Z,9.02
2022-11-05T03:59:03.181Z,8.50
2022-11-05T04:04:07.556Z,8.99
2022-11-05T04:09:28.815Z,10.09
2022-11-05T04:14:32.122Z,9.27
2022-11-05T04:19:54.264Z,9.46
2022-11-05T04:24:56.988Z,9.12
2022-11-05T04:30:17.001Z,9.28
2022-11-05T04:35:21.006Z,9.34
2022-11-05T04:40:24.229Z,9.81
2022-11-05T04:45:29.122Z,9.43
2022-11-05T04:50:34.253Z,9.67
2022-11-05T04:55:36.978Z,9.62
2022-11-05T05:00:39.698Z,9.68
2022-11-05T05:05:43.939Z,9.50
2022-11-05T05:10:46.617Z,8.90
2022-11-05T05:15:49.254Z,8.92
2022-11-05T05:21:10.976Z,8.98
2022-11-05T05:26:13.874Z,9.16
2022-11-05T05:31:16.512Z,9.20
2022-11-05T05:36:20.670Z,9.07
2022-11-05T05:41:23.392Z,9.36
2022-11-05T05:46:26.206Z,9.53
2022-11-05T05:51:31.338Z,9.13
2022-11-05T05:56:34.038Z,8.82
2022-11-05T06:01:37.091Z,8.97
2022-11-05T06:06:41.245Z,8.51
2022-11-05T06:11:43.976Z,8.81
2022-11-05T06:16:46.901Z,8.59
2022-11-05T06:21:51.275Z,8.81
2022-11-05T06:26:54.107Z,7.59
2022-11-05T06:31:56.800Z,7.53
2022-11-05T06:37:00.836Z,7.65
2022-11-05T06:42:17.769Z,7.15
2022-11-05T06:47:21.508Z,6.89
2022-11-05T06:52:27.139Z,7.33
2022-11-05T06:57:29.992Z,8.01
2022-11-05T07:02:40.227Z,8.04
2022-11-05T07:07:48.792Z,7.01
2022-11-05T07:13:02.510Z,7.00
2022-11-05T07:18:09.389Z,7.76
2022-11-05T07:23:15.720Z,7.45
2022-11-05T07:28:18.528Z,7.56
2022-11-05T07:33:21.194Z,7.57
2022-11-05T07:38:25.395Z,7.38
2022-11-05T07:43:28.305Z,7.52
2022-11-05T07:48:31.360Z,8.14
2022-11-05T07:53:42.509Z,8.81
2022-11-05T07:58:47.884Z,9.33
2022-11-05T08:03:52.096Z,9.49
2022-11-05T08:08:57.694Z,9.78
2022-11-05T08:14:00.516Z,9.92
2022-11-05T08:19:07.048Z,9.60
2022-11-05T08:24:11.606Z,9.60
2022-11-05T08:29:14.127Z,9.49
2022-11-05T08:34:16.851Z,9.54
2022-11-05T08:39:20.852Z,9.77
2022-11-05T08:44:23.479Z,10.13
2022-11-05T08:49:26.193Z,10.24
2022-11-05T08:54:30.169Z,10.38
2022-11-05T08:59:32.780Z,10.27
2022-11-05T09:04:35.386Z,10.08
2022-11-05T09:09:39.410Z,10.50
2022-11-05T09:14:58.477Z,10.50
2022-11-05T09:20:17.393Z,10.53
2022-11-05T09:31:23.607Z,10.65
2022-11-05T09:36:32.792Z,11.18
2022-11-05T09:41:40.638Z,11.94
2022-11-05T09:46:46.908Z,11.94
2022-11-05T09:51:50.684Z,11.63
2022-11-05T09:56:56.628Z,11.90
2022-11-05T10:02:13.510Z,13.58
2022-11-05T10:07:36.577Z,15.51
2022-11-05T10:12:49.137Z,16.93
2022-11-05T10:18:03.670Z,18.99
2022-11-05T10:23:16.955Z,19.91
2022-11-05T10:28:31.240Z,21.42
2022-11-05T10:33:37.199Z,22.55
2022-11-05T10:38:43.818Z,20.76
2022-11-05T10:43:50.848Z,17.11
2022-11-05T10:49:05.221Z,16.11
2022-11-05T10:54:17.335Z,15.67
2022-11-05T10:59:24.436Z,13.70
2022-11-05T11:04:33.611Z,13.46
2022-11-05T11:09:40.542Z,13.83
2022-11-05T11:15:11.722Z,17.24
2022-11-05T11:20:29.360Z,18.30
2022-11-05T11:25:39.235Z,22.26
2022-11-05T11:30:49.724Z,21.16
2022-11-05T11:35:52.723Z,18.19
2022-11-05T11:41:02.834Z,17.13
2022-11-05T11:46:16.131Z,17.34
2022-11-05T11:51:30.779Z,17.49
2022-11-05T11:56:45.225Z,21.77
2022-11-05T12:02:11.060Z,18.54
2022-11-05T12:07:24.817Z,17.81
2022-11-05T12:12:39.365Z,16.80
2022-11-05T12:17:58.412Z,18.72
2022-11-05T12:23:17.964Z,22.03
2022-11-05T12:29:04.844Z,20.66
2022-11-05T12:34:24.399Z,22.32
2022-11-05T12:39:44.948Z,23.76
2022-11-05T12:44:56.822Z,21.26
2022-11-05T12:50:22.723Z,21.45
2022-11-05T12:55:30.986Z,24.40
2022-11-05T13:00:54.388Z,25.54
2022-11-05T13:06:06.343Z,27.47
2022-11-05T13:11:21.301Z,28.38
2022-11-05T13:16:38.832Z,28.36
2022-11-05T13:21:53.775Z,28.48
2022-11-05T13:27:02.445Z,28.85
2022-11-05T13:32:27.061Z,26.56
2022-11-05T13:37:52.179Z,26.25
2022-11-05T13:43:11.053Z,26.28
2022-11-05T13:48:46.349Z,26.87
2022-11-05T13:54:20.646Z,23.47
2022-11-05T13:59:42.244Z,21.13
2022-11-05T14:05:00.935Z,18.99
2022-11-05T14:10:15.917Z,19.96
2022-11-05T14:15:28.256Z,17.80
2022-11-05T14:21:08.218Z,15.86
2022-11-05T14:26:20.515Z,14.91
2022-11-05T14:32:07.658Z,14.58
2022-11-05T14:37:15.578Z,14.80
2022-11-05T14:42:23.220Z,14.30
2022-11-05T14:47:30.679Z,14.46
2022-11-05T14:52:34.043Z,14.18
2022-11-05T14:58:21.725Z,13.24
2022-11-05T15:04:04.593Z,12.90
2022-11-05T15:09:35.066Z,12.40
2022-11-05T15:14:58.735Z,12.29
2022-11-05T15:20:11.921Z,10.40
2022-11-05T15:25:22.159Z,9.32
2022-11-05T15:30:25.888Z,9.18
2022-11-05T15:35:33.965Z,8.79
2022-11-05T15:40:36.867Z,8.56
2022-11-05T15:46:04.635Z,8.27
2022-11-05T15:51:10.765Z,8.32
2022-11-05T15:56:20.258Z,8.38
2022-11-05T16:01:27.989Z,8.35
2022-11-05T16:06:39.717Z,7.99
2022-11-05T16:11:42.649Z,7.67
2022-11-05T16:16:46.573Z,7.69
2022-11-05T16:21:55.928Z,7.61
2022-11-05T16:27:02.624Z,7.89
2022-11-05T16:32:14.976Z,8.26
2022-11-05T16:37:25.209Z,8.62
2022-11-05T16:42:40.241Z,8.91
2022-11-05T16:47:44.289Z,9.01
2022-11-05T16:52:59.873Z,7.12
2022-11-05T16:58:03.282Z,6.51
2022-11-05T17:03:12.954Z,6.14
2022-11-05T17:08:17.148Z,6.05
2022-11-05T17:13:21.389Z,6.20
2022-11-05T17:18:24.597Z,6.29
2022-11-05T17:23:30.467Z,6.38
2022-11-05T17:28:33.563Z,6.13
2022-11-05T17:33:36.484Z,6.02
2022-11-05T17:38:40.966Z,5.67
2022-11-05T17:43:44.038Z,5.71
2022-11-05T17:48:47.110Z,6.36
2022-11-05T17:53:51.217Z,6.33
2022-11-05T17:58:55.622Z,6.34
2022-11-05T18:04:01.252Z,6.85
2022-11-05T18:09:09.630Z,6.01
2022-11-05T18:14:13.178Z,6.02
2022-11-05T18:19:16.284Z,6.72
2022-11-05T18:24:20.485Z,6.89
2022-11-05T18:29:23.190Z,6.64
2022-11-05T18:34:25.832Z,6.84
2022-11-05T18:39:30.096Z,6.32
2022-11-05T18:44:38.765Z,5.17
2022-11-05T18:49:42.248Z,4.90
2022-11-05T18:54:46.347Z,4.94
2022-11-05T18:59:49.134Z,5.86
2022-11-05T19:05:21.984Z,5.47
2022-11-05T19:10:16.174Z,5.41
2022-11-05T19:15:19.031Z,6.01
2022-11-05T19:20:21.666Z,5.59
2022-11-05T19:25:25.751Z,6.00
2022-11-05T19:30:28.450Z,5.92
2022-11-05T19:35:31.080Z,5.20
2022-11-05T19:40:37.627Z,5.32
2022-11-05T19:45:45.456Z,5.71
2022-11-05T19:50:48.357Z,6.38
2022-11-05T19:55:52.418Z,5.91
2022-11-05T20:00:56.683Z,6.28
2022-11-05T20:06:03.538Z,6.48
2022-11-05T20:11:08.109Z,6.43
2022-11-05T20:16:19.729Z,6.48
2022-11-05T20:21:22.544Z,6.75
2022-11-05T20:26:26.973Z,6.62
2022-11-05T20:31:30.225Z,6.20
2022-11-05T20:36:32.857Z,5.12
2022-11-05T20:41:36.960Z,5.54
2022-11-05T20:46:39.815Z,6.33
2022-11-05T20:51:42.629Z,6.17
2022-11-05T20:56:46.694Z,5.55
2022-11-05T21:01:51.052Z,4.88
2022-11-05T21:06:53.929Z,5.20
2022-11-05T21:12:13.352Z,5.54
2022-11-05T21:17:15.985Z,6.11
2022-11-05T21:22:18.965Z,6.30
2022-11-05T21:27:22.996Z,6.38
2022-11-05T21:32:25.629Z,6.51
2022-11-05T21:37:28.637Z,6.45
2022-11-05T21:42:32.617Z,6.45
2022-11-05T21:47:35.683Z,6.47
2022-11-05T21:52:55.610Z,6.45
2022-11-05T21:58:21.228Z,6.36
2022-11-05T22:03:24.045Z,6.20
2022-11-05T22:08:27.238Z,5.54
2022-11-05T22:13:31.239Z,5.45
2022-11-05T22:18:33.918Z,5.13
2022-11-05T22:23:36.493Z,5.73
2022-11-05T22:28:40.522Z,6.05
2022-11-05T22:33:43.296Z,5.72
2022-11-05T22:38:46.075Z,5.83
2022-11-05T22:43:50.303Z,5.84
2022-11-05T22:48:53.930Z,6.24
2022-11-05T22:53:56.720Z,6.18
2022-11-05T22:59:00.875Z,5.72
2022-11-05T23:04:03.486Z,5.68
2022-11-05T23:09:26.322Z,5.84
2022-11-05T23:14:30.479Z,6.36
2022-11-05T23:19:47.003Z,6.23
2022-11-05T23:24:49.651Z,6.48
2022-11-05T23:29:53.773Z,6.38
2022-11-05T23:34:57.849Z,6.46
2022-11-05T23:40:00.685Z,6.37
2022-11-05T23:45:22.833Z,6.41
2022-11-05T23:50:26.012Z,6.32
2022-11-05T23:55:28.675Z,6.34
